Aérodrome :
LOGIN :

S'inscrire | Disclaimer

   EN    FR    IT 

 










Légende :    VFR   VFR Marginal   IFR   IFR Intensif   IFR Très Intensif
Visi : 
Plafond : 
>= 8 km
>= 3000ft
5 à 8 km
1000 à 3000 ft
1500m à 5 km
500 à 1000 ft
800 à 1500m
200 à 500 ft
< 800m
< 200 ft
Symboles :   Orages  Brouillard  Fortes neiges  Fortes précipitations  Vent > 20 kt
SIGMETs :   Divers  Orages  Givrage  Turbulence  Onde Orograph.  Cendres Volcan.






- Altitude de l'aérodrome : 24 ft
- Code IATA : FAO


LPFR - Faro

DERNIER METAR :
  • 070200Z 02009KT CAVOK 14/08 Q1021

METARs EXPIRÉS :
  • 070130Z 02009KT CAVOK 14/08 Q1021
  • 070100Z 01008KT CAVOK 13/08 Q1021
  • 070030Z 02008KT CAVOK 15/08 Q1021
  • 070000Z 02009KT CAVOK 14/08 Q1021
  • 062330Z 01008KT CAVOK 14/09 Q1021

TAF TAF LPFR
Valide du 07 à 00h jusqu'au 08 à 00h UTC


062300Z 0700/0724 02007KT CAVOK
BECMG 0710/0713 24008KT
BECMG 0715/0717 VRB03KT
BECMG 0718/0720 01007KT



MET'MAP, la Météo Aéronautique d'un coup d'oeil ! - Copyright ORBIFLY Décembre 2007 - Disclaimer

ORBIFLY MET'MAP TEAM :

Programmation & Développement : Alexandra Zaïnal
Sur une idée originale de : Baudouin d'Aumeries
Assistance à la programmation : Marc-Olivier Méhu
Soutien technique & logistique : Manuel Goepfert

Contact : metmap@orbifly.com




SOURCES & CREDITS :

   NOAA